Time;durP1;ratioP1;P1;durP2;ratioP2;P2;SDS_P1;SDS_P2;PMS_P1;PMS_P2;Temp;Humidity;BMP_temperature;BMP_pressure;BME280_temperature;BME280_humidity;BME280_pressure;Samples;Min_cycle;Max_cycle;Signal;HPM_P1;HPM_P2
2022/08/12 00:44:44;;;;;;;0.20;0.20;;;19.40;99.90;;;;;;5068909;28;20077;-81
2022/08/12 00:47:13;;;;;;;0.20;0.20;;;19.40;99.90;;;;;;5077055;28;20448;-81
2022/08/12 00:49:39;;;;;;;0.20;0.20;;;19.40;99.90;;;;;;5070188;28;20582;-81
2022/08/12 00:52:06;;;;;;;0.17;0.17;;;19.40;99.90;;;;;;5061208;28;20393;-81
2022/08/12 00:54:45;;;;;;;0.13;0.13;;;19.50;99.90;;;;;;5084894;28;20040;-82
2022/08/12 00:57:21;;;;;;;0.20;0.20;;;19.50;99.90;;;;;;5066417;28;20046;-81
2022/08/12 00:59:47;;;;;;;0.10;0.10;;;19.50;99.90;;;;;;5065749;28;20491;-82
2022/08/12 01:02:22;;;;;;;0.15;0.15;;;19.40;99.90;;;;;;5074403;28;20472;-82
2022/08/12 01:13:14;;;;;;;0.20;0.20;;;19.50;99.90;;;;;;5060528;28;20442;-82
2022/08/12 01:15:40;;;;;;;0.20;0.20;;;19.50;99.90;;;;;;5063970;28;20040;-83
2022/08/12 01:18:05;;;;;;;0.20;0.20;;;19.50;99.90;;;;;;5068455;28;20047;-82
2022/08/12 01:20:38;;;;;;;0.20;0.20;;;19.50;99.90;;;;;;5071642;28;20044;-81
2022/08/12 01:23:17;;;;;;;0.20;0.20;;;19.40;99.90;;;;;;5062128;28;20037;-82
2022/08/12 01:25:46;;;;;;;0.20;0.20;;;19.40;99.90;;;;;;5067215;28;20490;-81
2022/08/12 01:28:14;;;;;;;0.10;0.10;;;19.40;99.90;;;;;;5057734;28;20045;-82
2022/08/12 01:30:42;;;;;;;0.10;0.10;;;19.40;99.90;;;;;;5054854;28;20041;-82
2022/08/12 01:33:12;;;;;;;0.20;0.20;;;19.40;99.90;;;;;;5053147;28;20052;-83
2022/08/12 01:35:47;;;;;;;0.20;0.20;;;19.40;99.90;;;;;;5056821;28;20051;-82
2022/08/12 01:38:19;;;;;;;0.20;0.20;;;19.40;99.90;;;;;;5052667;28;20043;-83
2022/08/12 01:40:46;;;;;;;0.10;0.10;;;19.40;99.90;;;;;;5069630;28;20115;-82
2022/08/12 01:43:20;;;;;;;0.20;0.20;;;19.40;99.90;;;;;;5052330;28;20578;-82
2022/08/12 01:45:51;;;;;;;0.20;0.20;;;19.40;99.90;;;;;;5055410;28;20032;-82
2022/08/12 01:48:38;;;;;;;0.13;0.13;;;19.40;99.90;;;;;;5070417;28;20054;-82
2022/08/12 01:51:13;;;;;;;0.15;0.15;;;19.40;99.90;;;;;;5061111;28;20455;-82
2022/08/12 01:53:58;;;;;;;0.20;0.20;;;19.40;99.90;;;;;;5061132;28;20068;-81
2022/08/12 01:56:27;;;;;;;0.10;0.10;;;19.40;99.90;;;;;;5059130;28;20048;-81
2022/08/12 02:01:44;;;;;;;0.20;0.20;;;19.40;99.90;;;;;;5064653;28;20552;-82
2022/08/12 02:14:05;;;;;;;0.20;0.20;;;19.30;99.90;;;;;;5059860;28;20119;-81
2022/08/12 02:16:49;;;;;;;0.20;0.20;;;19.30;99.90;;;;;;5060379;28;20119;-81
2022/08/12 02:19:40;;;;;;;0.10;0.10;;;19.30;99.90;;;;;;5071610;28;20048;-82
2022/08/12 02:22:28;;;;;;;0.10;0.10;;;19.30;99.90;;;;;;5065419;28;20207;-81
2022/08/12 02:25:06;;;;;;;0.20;0.20;;;19.30;99.90;;;;;;5066424;28;20052;-81
2022/08/12 02:27:36;;;;;;;0.20;0.20;;;19.20;99.90;;;;;;5064840;28;20335;-82
2022/08/12 02:30:04;;;;;;;0.20;0.20;;;19.20;99.90;;;;;;5067651;28;20028;-83
2022/08/12 02:32:37;;;;;;;0.20;0.20;;;19.20;99.90;;;;;;5074041;28;20391;-81
2022/08/12 02:35:04;;;;;;;0.20;0.20;;;19.20;99.90;;;;;;5072030;28;20045;-82
2022/08/12 02:37:34;;;;;;;0.10;0.10;;;19.20;99.90;;;;;;5065763;28;20036;-81
2022/08/12 02:40:02;;;;;;;0.20;0.20;;;19.10;99.90;;;;;;5062537;28;20052;-82
2022/08/12 02:42:31;;;;;;;0.13;0.13;;;19.10;99.90;;;;;;5071737;28;20094;-82
2022/08/12 02:45:03;;;;;;;0.20;0.20;;;19.10;99.90;;;;;;5064801;28;20040;-82
2022/08/12 02:47:33;;;;;;;0.10;0.10;;;19.10;99.90;;;;;;5074400;28;20044;-82
2022/08/12 02:50:02;;;;;;;0.20;0.20;;;19.00;99.90;;;;;;5070566;28;20107;-82
2022/08/12 02:52:28;;;;;;;0.20;0.20;;;19.00;99.90;;;;;;5067897;28;20048;-82
2022/08/12 02:55:00;;;;;;;0.17;0.17;;;19.00;99.90;;;;;;5065312;28;20400;-83
2022/08/12 02:57:27;;;;;;;0.10;0.10;;;18.90;99.90;;;;;;5067756;28;20391;-83
2022/08/12 02:59:53;;;;;;;0.20;0.20;;;18.90;99.90;;;;;;5071780;28;20059;-82
2022/08/12 03:02:30;;;;;;;0.20;0.20;;;18.80;99.90;;;;;;5048004;28;20082;-83
2022/08/12 03:04:59;;;;;;;0.10;0.10;;;18.90;99.90;;;;;;5065620;28;20426;-83
2022/08/12 03:07:25;;;;;;;0.15;0.15;;;18.90;99.90;;;;;;5068000;28;20044;-83
2022/08/12 03:09:56;;;;;;;0.20;0.20;;;18.90;99.90;;;;;;5054335;28;20059;-83
2022/08/12 03:12:23;;;;;;;0.10;0.10;;;18.80;99.90;;;;;;5055883;28;20077;-83
2022/08/12 03:14:51;;;;;;;0.20;0.20;;;18.80;99.90;;;;;;5058355;28;20074;-82
2022/08/12 03:17:27;;;;;;;0.10;0.10;;;18.80;99.90;;;;;;5055452;28;20064;-83
2022/08/12 03:19:55;;;;;;;0.13;0.13;;;18.80;99.90;;;;;;5060561;28;20082;-81
2022/08/12 03:22:22;;;;;;;0.20;0.20;;;18.80;99.90;;;;;;5055206;28;20048;-82
2022/08/12 03:24:49;;;;;;;0.17;0.17;;;18.80;99.90;;;;;;5045935;28;20067;-81
2022/08/12 03:27:16;;;;;;;0.15;0.15;;;18.70;99.90;;;;;;5052767;28;20071;-81
2022/08/12 03:29:46;;;;;;;0.20;0.20;;;18.70;99.90;;;;;;5055809;28;20045;-81
2022/08/12 03:32:13;;;;;;;0.10;0.10;;;18.70;99.90;;;;;;5051718;28;20051;-81
2022/08/12 03:34:41;;;;;;;0.20;0.20;;;18.60;99.90;;;;;;5050510;28;20041;-82
2022/08/12 03:37:07;;;;;;;0.20;0.20;;;18.60;99.90;;;;;;5050117;28;20044;-81
2022/08/12 03:42:26;;;;;;;0.20;0.20;;;18.50;99.90;;;;;;5054357;28;20588;-82
2022/08/12 04:01:43;;;;;;;0.20;0.20;;;18.20;99.90;;;;;;5066578;28;20052;-82
2022/08/12 04:04:09;;;;;;;0.20;0.20;;;18.10;99.90;;;;;;5084264;28;20059;-82
2022/08/12 04:06:44;;;;;;;0.10;0.10;;;18.10;99.90;;;;;;5061469;28;20397;-82
2022/08/12 04:09:11;;;;;;;0.20;0.20;;;18.10;99.90;;;;;;5061603;28;20380;-82
2022/08/12 04:14:26;;;;;;;0.10;0.10;;;18.00;99.90;;;;;;5073616;28;20041;-82
2022/08/12 04:16:54;;;;;;;0.20;0.20;;;17.90;99.90;;;;;;5070143;28;20495;-82
2022/08/12 04:19:20;;;;;;;0.10;0.10;;;17.90;99.90;;;;;;5067820;28;20098;-83
2022/08/12 04:21:46;;;;;;;0.15;0.15;;;17.80;99.90;;;;;;5068240;28;20037;-82
2022/08/12 04:24:12;;;;;;;0.20;0.20;;;17.90;99.90;;;;;;5064901;28;20055;-82
2022/08/12 04:26:40;;;;;;;0.13;0.13;;;17.80;99.90;;;;;;5059914;28;20040;-82
2022/08/12 04:29:09;;;;;;;0.20;0.20;;;17.80;99.90;;;;;;5054176;28;20041;-83
2022/08/12 04:31:38;;;;;;;0.10;0.10;;;17.80;99.90;;;;;;5054262;28;20033;-82
2022/08/12 04:34:05;;;;;;;0.20;0.20;;;17.90;99.90;;;;;;5060474;28;21551;-82
2022/08/12 04:36:31;;;;;;;0.17;0.17;;;17.80;99.90;;;;;;5070192;28;20054;-82
2022/08/12 04:39:04;;;;;;;0.10;0.10;;;17.80;99.90;;;;;;5075612;28;20469;-83
2022/08/12 04:41:30;;;;;;;0.10;0.10;;;17.80;99.90;;;;;;5067403;28;20052;-82
2022/08/12 04:43:56;;;;;;;0.10;0.10;;;17.80;99.90;;;;;;5085942;28;20097;-81
2022/08/12 04:46:23;;;;;;;0.20;0.20;;;17.90;99.90;;;;;;5068287;28;20442;-82
2022/08/12 04:48:49;;;;;;;0.20;0.20;;;17.90;99.90;;;;;;5068303;28;20041;-82
2022/08/12 04:51:16;;;;;;;0.10;0.10;;;17.80;99.90;;;;;;5069878;28;20048;-83
2022/08/12 04:53:42;;;;;;;0.20;0.20;;;17.90;99.90;;;;;;5070623;28;20127;-82
2022/08/12 04:56:11;;;;;;;0.20;0.20;;;17.90;99.90;;;;;;5061765;28;20040;-83
2022/08/12 04:58:37;;;;;;;0.10;0.10;;;17.90;99.90;;;;;;5081901;28;20040;-82
2022/08/12 05:01:03;;;;;;;0.10;0.10;;;17.90;99.90;;;;;;5065438;28;20044;-83
2022/08/12 05:03:30;;;;;;;0.20;0.20;;;17.90;99.90;;;;;;5061772;28;20040;-82
2022/08/12 05:05:56;;;;;;;0.20;0.20;;;17.90;99.90;;;;;;5063162;28;20036;-82
2022/08/12 05:08:23;;;;;;;0.13;0.13;;;17.90;99.90;;;;;;5067056;28;20047;-82
2022/08/12 05:10:49;;;;;;;0.17;0.17;;;18.00;99.90;;;;;;5086736;28;20524;-82
2022/08/12 05:13:41;;;;;;;0.10;0.10;;;18.00;99.90;;;;;;5085235;28;20044;-82
2022/08/12 05:16:07;;;;;;;0.10;0.10;;;18.00;99.90;;;;;;5078933;28;20072;-82
2022/08/12 05:18:38;;;;;;;0.10;0.10;;;18.10;99.90;;;;;;5069661;28;20114;-82
2022/08/12 05:21:08;;;;;;;0.22;0.22;;;18.10;99.90;;;;;;5093281;28;20046;-82
2022/08/12 05:23:38;;;;;;;0.10;0.10;;;18.10;99.90;;;;;;5085005;28;20044;-82
2022/08/12 05:26:03;;;;;;;0.20;0.20;;;18.10;99.90;;;;;;5085414;28;20037;-82
2022/08/12 05:28:29;;;;;;;0.10;0.10;;;18.10;99.90;;;;;;5071318;28;20095;-82
2022/08/12 05:30:57;;;;;;;0.15;0.15;;;18.20;99.90;;;;;;5067196;28;20366;-82
2022/08/12 05:33:25;;;;;;;0.20;0.20;;;18.20;99.90;;;;;;5068578;28;20053;-82
2022/08/12 05:35:51;;;;;;;0.10;0.10;;;18.20;99.90;;;;;;5076519;28;20045;-82
2022/08/12 05:41:05;;;;;;;0.20;0.20;;;18.30;99.90;;;;;;5069586;28;20036;-83
2022/08/12 05:43:33;;;;;;;0.13;0.13;;;18.30;99.90;;;;;;5073742;28;20111;-83
2022/08/12 05:45:58;;;;;;;0.10;0.10;;;18.40;99.90;;;;;;5063963;28;20094;-82
2022/08/12 05:48:24;;;;;;;0.15;0.15;;;18.40;99.90;;;;;;5061053;28;20053;-83
2022/08/12 05:50:51;;;;;;;0.10;0.10;;;18.50;99.90;;;;;;5080049;28;20064;-83
2022/08/12 05:53:20;;;;;;;0.17;0.17;;;18.50;99.90;;;;;;5068636;28;20106;-82
2022/08/12 05:55:46;;;;;;;0.10;0.10;;;18.50;99.90;;;;;;5058486;28;20060;-82
2022/08/12 05:58:11;;;;;;;0.10;0.10;;;18.60;99.90;;;;;;5076468;28;20094;-82
2022/08/12 06:00:37;;;;;;;0.10;0.10;;;18.70;99.90;;;;;;5057843;28;20131;-83
2022/08/12 06:03:04;;;;;;;0.10;0.10;;;18.70;99.90;;;;;;5055608;28;20052;-83
2022/08/12 06:05:34;;;;;;;0.20;0.20;;;;;;;;;;5052217;28;20131;-83
2022/08/12 06:08:05;;;;;;;0.20;0.20;;;;;;;;;;5069294;28;20041;-83
2022/08/12 06:10:31;;;;;;;0.20;0.20;;;;;;;;;;5062925;28;21383;-83
2022/08/12 06:12:57;;;;;;;0.20;0.20;;;;;;;;;;5069351;28;20047;-83
2022/08/12 06:15:24;;;;;;;0.15;0.15;;;;;;;;;;5066552;28;20070;-83
2022/08/12 06:17:50;;;;;;;0.10;0.10;;;;;;;;;;5066871;28;20044;-83
2022/08/12 06:20:16;;;;;;;0.10;0.10;;;;;;;;;;5080709;28;20051;-83
2022/08/12 06:22:43;;;;;;;0.10;0.10;;;;;;;;;;5060873;28;20037;-83
2022/08/12 06:25:09;;;;;;;0.13;0.13;;;;;;;;;;5078050;28;20040;-81
2022/08/12 06:27:42;;;;;;;0.15;0.15;;;;;;;;;;5073141;28;20046;-81
2022/08/12 06:30:09;;;;;;;0.10;0.10;;;;;;;;;;5061957;28;20076;-82
2022/08/12 06:32:36;;;;;;;0.20;0.20;;;;;;;;;;5065064;28;20480;-81
2022/08/12 06:35:03;;;;;;;0.20;0.20;;;;;;;;;;5059529;28;20319;-83
2022/08/12 06:37:29;;;;;;;0.20;0.20;;;;;;;;;;5054595;28;20102;-82
2022/08/12 06:39:55;;;;;;;0.20;0.20;;;;;;;;;;5076424;28;20052;-82
2022/08/12 06:45:06;;;;;;;0.20;0.20;;;;;;;;;;5077568;28;20084;-82
2022/08/12 06:47:36;;;;;;;0.20;0.20;;;;;;;;;;5068930;28;20084;-83
2022/08/12 06:50:02;;;;;;;0.20;0.20;;;;;;;;;;5066620;28;20049;-83
2022/08/12 06:52:30;;;;;;;0.20;0.20;;;;;;;;;;5059647;28;20041;-81
2022/08/12 06:54:57;;;;;;;0.10;0.10;;;;;;;;;;5050478;28;20660;-81
2022/08/12 06:57:26;;;;;;;0.20;0.20;;;;;;;;;;5053203;28;20053;-82
2022/08/12 06:59:52;;;;;;;0.20;0.20;;;;;;;;;;5049338;28;20045;-81
2022/08/12 07:02:19;;;;;;;0.10;0.10;;;;;;;;;;5053785;28;20056;-81
2022/08/12 07:04:46;;;;;;;0.20;0.20;;;;;;;;;;5056134;28;20051;-82
2022/08/12 07:07:12;;;;;;;0.20;0.20;;;;;;;;;;5062110;28;20048;-81
2022/08/12 07:09:41;;;;;;;0.20;0.20;;;;;;;;;;5065283;28;20496;-80
2022/08/12 07:12:18;;;;;;;0.20;0.20;;;;;;;;;;5069465;28;20117;-80
2022/08/12 07:14:44;;;;;;;0.22;0.22;;;;;;;;;;5071944;28;20507;-80
2022/08/12 07:17:11;;;;;;;0.20;0.20;;;20.70;99.90;;;;;;5066110;28;20047;-81
2022/08/12 07:19:38;;;;;;;0.10;0.10;;;20.70;99.90;;;;;;5065872;28;20090;-80
2022/08/12 07:22:05;;;;;;;0.17;0.17;;;20.70;99.90;;;;;;5068438;28;20096;-81
2022/08/12 07:24:34;;;;;;;0.20;0.20;;;20.80;99.90;;;;;;5062986;28;20052;-81
2022/08/12 07:26:59;;;;;;;0.10;0.10;;;20.90;99.90;;;;;;5068932;28;20079;-80
2022/08/12 07:29:27;;;;;;;0.20;0.20;;;21.20;99.90;;;;;;5060263;28;20480;-80
2022/08/12 07:31:53;;;;;;;0.10;0.10;;;21.00;99.90;;;;;;5080004;28;20047;-80
2022/08/12 07:34:18;;;;;;;0.20;0.20;;;21.10;99.90;;;;;;5078901;28;20044;-79
2022/08/12 07:36:46;;;;;;;0.20;0.20;;;21.20;99.90;;;;;;5088201;28;20040;-80
2022/08/12 07:39:12;;;;;;;0.20;0.20;;;21.20;99.90;;;;;;5064259;28;20052;-80
2022/08/12 07:41:38;;;;;;;0.20;0.20;;;21.30;99.90;;;;;;5066803;28;20146;-79
2022/08/12 07:44:06;;;;;;;0.20;0.20;;;21.40;99.90;;;;;;5064028;28;20059;-80
2022/08/12 07:46:36;;;;;;;0.30;0.30;;;21.40;99.90;;;;;;5062663;28;20501;-80
2022/08/12 07:49:05;;;;;;;0.20;0.20;;;21.50;99.90;;;;;;5057150;28;20186;-80
2022/08/12 07:51:31;;;;;;;0.20;0.20;;;21.50;99.90;;;;;;5055311;28;20076;-80
2022/08/12 07:53:58;;;;;;;0.20;0.20;;;21.60;99.90;;;;;;5065037;28;20072;-79
2022/08/12 07:56:27;;;;;;;0.20;0.20;;;21.70;99.90;;;;;;5059984;28;20053;-79
2022/08/12 07:58:53;;;;;;;0.13;0.13;;;21.70;99.90;;;;;;5057402;28;20115;-80
2022/08/12 08:01:20;;;;;;;0.20;0.20;;;21.80;99.90;;;;;;5068716;28;20182;-80
2022/08/12 08:06:34;;;;;;;0.20;0.20;;;21.90;99.90;;;;;;5055713;28;20048;-80
2022/08/12 08:09:02;;;;;;;0.10;0.10;;;22.00;99.90;;;;;;5067226;28;20036;-80
2022/08/12 08:14:13;;;;;;;0.10;0.10;;;22.10;99.90;;;;;;5055295;28;20040;-83
2022/08/12 08:16:41;;;;;;;0.20;0.20;;;22.20;99.90;;;;;;5079787;28;20401;-82
2022/08/12 08:19:11;;;;;;;0.20;0.20;;;22.20;99.90;;;;;;5069389;28;20388;-82
2022/08/12 08:21:40;;;;;;;0.20;0.20;;;22.30;99.90;;;;;;5056860;28;20122;-81
2022/08/12 08:24:14;;;;;;;0.20;0.20;;;22.40;99.90;;;;;;5069432;28;20040;-81
2022/08/12 08:26:42;;;;;;;0.20;0.20;;;22.50;99.90;;;;;;5057765;28;20096;-81
2022/08/12 08:29:07;;;;;;;0.20;0.20;;;22.50;99.90;;;;;;5073173;28;20049;-82
2022/08/12 08:31:34;;;;;;;0.20;0.20;;;22.60;99.90;;;;;;5069873;28;20377;-81
2022/08/12 08:34:00;;;;;;;0.20;0.20;;;22.60;99.90;;;;;;5068020;28;20543;-80
2022/08/12 08:36:27;;;;;;;0.20;0.20;;;22.70;99.90;;;;;;5069658;28;20079;-80
2022/08/12 08:38:53;;;;;;;0.10;0.10;;;22.80;99.90;;;;;;5065076;28;20048;-81
2022/08/12 08:44:05;;;;;;;0.20;0.20;;;23.00;99.90;;;;;;5071523;28;20435;-81
2022/08/12 08:46:36;;;;;;;0.20;0.20;;;23.10;99.90;;;;;;5055270;28;20562;-81
2022/08/12 08:49:02;;;;;;;0.20;0.20;;;23.20;99.90;;;;;;5065698;28;20072;-82
2022/08/12 08:51:28;;;;;;;0.20;0.20;;;23.30;99.90;;;;;;5067913;28;20308;-81
2022/08/12 08:53:53;;;;;;;0.20;0.20;;;23.40;99.90;;;;;;5060298;28;20039;-83
2022/08/12 08:56:19;;;;;;;0.20;0.20;;;23.50;99.90;;;;;;5069264;28;20683;-81
2022/08/12 08:58:45;;;;;;;0.30;0.30;;;23.50;99.90;;;;;;5070067;28;20099;-81
2022/08/12 09:01:16;;;;;;;0.20;0.20;;;23.60;99.90;;;;;;5060028;28;20449;-82
2022/08/12 09:03:42;;;;;;;0.10;0.10;;;23.70;99.80;;;;;;5061800;28;20053;-82
2022/08/12 09:06:07;;;;;;;0.20;0.20;;;23.80;99.60;;;;;;5068053;28;20377;-81
2022/08/12 09:08:33;;;;;;;0.20;0.20;;;23.90;99.40;;;;;;5063807;28;20218;-82
2022/08/12 09:13:26;;;;;;;0.20;0.20;;;23.90;99.30;;;;;;5071265;28;20043;-82
2022/08/12 09:13:44;;;;;;;0.20;0.20;;;24.00;99.20;;;;;;5072941;28;20048;-81
2022/08/12 09:16:10;;;;;;;0.20;0.20;;;24.00;99.20;;;;;;5071701;28;20052;-82
2022/08/12 09:18:36;;;;;;;0.20;0.20;;;24.10;99.10;;;;;;5064584;28;20028;-82
2022/08/12 09:21:02;;;;;;;0.20;0.20;;;24.20;99.10;;;;;;5070263;28;20048;-81
2022/08/12 09:23:28;;;;;;;0.20;0.20;;;24.30;98.80;;;;;;5072071;28;20086;-80
2022/08/12 09:25:53;;;;;;;0.20;0.20;;;24.40;98.60;;;;;;5075812;28;20492;-81
2022/08/12 09:28:24;;;;;;;0.20;0.20;;;24.40;97.80;;;;;;5060648;28;20044;-81
2022/08/12 09:30:51;;;;;;;0.20;0.20;;;24.50;97.30;;;;;;5050475;28;20044;-81
2022/08/12 09:33:16;;;;;;;0.20;0.20;;;24.60;97.00;;;;;;5053173;28;20115;-81
2022/08/12 09:35:45;;;;;;;0.20;0.20;;;24.70;96.70;;;;;;5070848;28;20453;-81
2022/08/12 09:38:16;;;;;;;0.20;0.20;;;24.70;96.60;;;;;;5083756;28;20127;-80
2022/08/12 09:40:43;;;;;;;;;;;24.80;96.40;;;;;;5092577;28;20048;-81
2022/08/12 09:45:53;;;;;;;0.20;0.20;;;24.90;95.70;;;;;;5072097;28;20139;-81
2022/08/12 09:48:19;;;;;;;0.20;0.20;;;25.00;95.40;;;;;;5070173;28;20136;-80
2022/08/12 09:50:49;;;;;;;0.20;0.20;;;25.00;95.00;;;;;;5068041;28;20044;-82
2022/08/12 09:53:17;;;;;;;0.20;0.20;;;25.10;95.10;;;;;;5069137;28;20055;-82
2022/08/12 09:55:47;;;;;;;0.20;0.20;;;25.10;95.10;;;;;;5075995;28;20048;-81
2022/08/12 09:58:17;;;;;;;0.25;0.25;;;25.20;94.70;;;;;;5068514;28;20083;-82
2022/08/12 10:00:43;;;;;;;0.30;0.30;;;25.30;94.90;;;;;;5066650;28;20576;-82
2022/08/12 10:03:10;;;;;;;0.20;0.20;;;25.30;94.40;;;;;;5050278;28;20049;-80
2022/08/12 10:05:42;;;;;;;0.20;0.20;;;25.40;94.10;;;;;;5063820;28;20040;-80
2022/08/12 10:08:10;;;;;;;0.20;0.20;;;25.50;94.20;;;;;;5059631;28;20037;-80
2022/08/12 10:13:40;;;;;;;0.20;0.20;;;25.50;93.80;;;;;;5063418;28;20044;-80
2022/08/12 10:13:42;;;;;;;0.30;0.30;;;25.60;93.30;;;;;;5068617;28;20044;-81
2022/08/12 10:16:16;;;;;;;0.20;0.20;;;25.70;93.60;;;;;;5053331;28;20121;-80
2022/08/12 10:18:50;;;;;;;0.20;0.20;;;25.80;93.00;;;;;;5066001;28;20036;-80
2022/08/12 10:21:29;;;;;;;0.20;0.20;;;25.80;93.10;;;;;;5079023;28;20396;-81
2022/08/12 10:23:56;;;;;;;0.20;0.20;;;25.90;92.70;;;;;;5069991;28;20045;-81
2022/08/12 10:31:53;;;;;;;0.20;0.20;;;26.10;91.60;;;;;;5069867;28;20053;-81
2022/08/12 10:34:23;;;;;;;0.20;0.20;;;26.20;91.50;;;;;;5070356;28;20094;-80
2022/08/12 10:36:50;;;;;;;0.20;0.20;;;26.20;91.40;;;;;;5070064;28;20492;-81
2022/08/12 10:39:17;;;;;;;0.25;0.25;;;26.30;90.90;;;;;;5069390;28;20036;-81
2022/08/12 10:44:29;;;;;;;0.20;0.20;;;26.40;90.30;;;;;;5059668;28;20497;-82
2022/08/12 10:46:55;;;;;;;0.20;0.20;;;26.50;89.90;;;;;;5070017;28;20103;-81
2022/08/12 10:49:27;;;;;;;0.20;0.20;;;26.60;89.20;;;;;;5070024;28;20400;-82
2022/08/12 10:51:56;;;;;;;0.20;0.20;;;26.60;88.40;;;;;;5070448;28;20068;-81
2022/08/12 10:54:26;;;;;;;0.20;0.20;;;26.70;88.20;;;;;;5057203;28;20122;-81
2022/08/12 10:56:52;;;;;;;0.20;0.20;;;26.80;88.00;;;;;;5049186;28;20431;-81
2022/08/12 10:59:20;;;;;;;0.22;0.22;;;26.90;86.90;;;;;;5085249;28;20109;-81
2022/08/12 11:01:51;;;;;;;0.30;0.30;;;26.90;85.70;;;;;;5069854;28;20064;-81
2022/08/12 11:04:17;;;;;;;0.20;0.20;;;27.00;84.70;;;;;;5075816;28;20548;-81
2022/08/12 11:06:49;;;;;;;0.20;0.20;;;27.10;85.30;;;;;;5068997;28;20519;-81
2022/08/12 11:09:41;;;;;;;0.20;0.20;;;27.10;84.50;;;;;;5067338;28;20405;-81
2022/08/12 11:12:07;;;;;;;0.20;0.20;;;27.20;83.80;;;;;;5065659;28;20096;-81
2022/08/12 11:14:35;;;;;;;0.20;0.20;;;27.30;82.50;;;;;;5064633;28;20071;-78
2022/08/12 11:17:06;;;;;;;0.20;0.20;;;27.40;82.40;;;;;;5064543;28;20040;-83
2022/08/12 11:19:33;;;;;;;0.30;0.30;;;27.50;81.80;;;;;;5072279;28;20131;-82
2022/08/12 11:21:59;;;;;;;0.20;0.20;;;27.50;80.60;;;;;;5054362;28;20037;-82
2022/08/12 11:24:26;;;;;;;0.20;0.20;;;27.60;79.90;;;;;;5050032;28;20045;-82
2022/08/12 11:26:53;;;;;;;0.20;0.20;;;27.60;79.30;;;;;;5063266;28;20480;-83
2022/08/12 11:29:21;;;;;;;0.20;0.20;;;27.70;78.80;;;;;;5061137;28;20049;-83
2022/08/12 11:31:47;;;;;;;0.20;0.20;;;27.80;78.10;;;;;;5066179;28;20464;-82
2022/08/12 11:34:13;;;;;;;0.20;0.20;;;27.80;78.00;;;;;;5068357;28;20083;-83
2022/08/12 11:36:47;;;;;;;0.20;0.20;;;27.90;77.40;;;;;;5057884;28;20110;-82
2022/08/12 11:39:13;;;;;;;0.20;0.20;;;28.00;77.60;;;;;;5068127;28;20059;-83
2022/08/12 11:41:39;;;;;;;0.20;0.20;;;28.00;77.00;;;;;;5068231;28;20037;-82
2022/08/12 11:44:05;;;;;;;0.20;0.20;;;28.10;77.70;;;;;;5069172;28;20104;-81
2022/08/12 11:46:38;;;;;;;0.20;0.20;;;28.10;76.80;;;;;;5070313;28;20036;-81
2022/08/12 11:49:04;;;;;;;0.20;0.20;;;28.20;77.40;;;;;;5069341;28;20109;-82
2022/08/12 11:51:30;;;;;;;0.20;0.20;;;28.30;77.10;;;;;;5075622;28;20047;-81
2022/08/12 11:53:56;;;;;;;0.20;0.20;;;28.30;76.60;;;;;;5094867;28;20044;-82
2022/08/12 11:56:22;;;;;;;0.28;0.25;;;28.40;76.60;;;;;;5068578;28;20044;-82
2022/08/12 11:58:48;;;;;;;0.20;0.20;;;28.50;76.20;;;;;;5068412;28;20153;-81
2022/08/12 12:01:13;;;;;;;0.20;0.20;;;28.60;75.90;;;;;;5066374;28;20059;-81
2022/08/12 12:03:40;;;;;;;0.20;0.20;;;28.60;75.90;;;;;;5058024;28;20047;-82
2022/08/12 12:06:05;;;;;;;0.20;0.20;;;28.70;75.90;;;;;;5053250;28;20480;-82
2022/08/12 12:08:31;;;;;;;0.20;0.20;;;28.80;74.30;;;;;;5064789;28;20056;-82
2022/08/12 12:10:57;;;;;;;0.20;0.20;;;28.90;74.50;;;;;;5070537;28;20048;-82
2022/08/12 12:13:23;;;;;;;0.20;0.20;;;28.90;74.00;;;;;;5072921;28;20033;-83
2022/08/12 12:15:48;;;;;;;0.20;0.20;;;29.00;73.90;;;;;;5070748;28;20052;-82
2022/08/12 12:18:21;;;;;;;0.20;0.20;;;29.10;74.00;;;;;;5071961;28;20044;-82
2022/08/12 12:20:47;;;;;;;0.20;0.20;;;29.10;73.30;;;;;;5073561;28;20715;-82
2022/08/12 12:23:13;;;;;;;0.20;0.20;;;29.20;73.30;;;;;;5073226;28;20043;-82
2022/08/12 12:25:39;;;;;;;0.20;0.20;;;29.30;73.30;;;;;;5070162;28;20369;-81
2022/08/12 12:28:04;;;;;;;0.20;0.20;;;29.40;73.90;;;;;;5084056;28;20044;-82
2022/08/12 12:30:30;;;;;;;0.20;0.20;;;29.50;73.40;;;;;;5085740;28;20064;-81
2022/08/12 12:32:56;;;;;;;0.30;0.30;;;29.60;73.00;;;;;;5068066;28;20532;-83
2022/08/12 12:35:22;;;;;;;0.20;0.20;;;29.70;72.40;;;;;;5068329;28;20493;-82
2022/08/12 12:37:59;;;;;;;0.20;0.20;;;29.80;71.80;;;;;;5069007;28;20373;-83
2022/08/12 12:40:29;;;;;;;0.20;0.20;;;29.90;71.60;;;;;;5068336;28;20048;-83
2022/08/12 12:42:55;;;;;;;0.20;0.20;;;30.00;71.20;;;;;;5073487;28;20044;-82
2022/08/12 12:45:22;;;;;;;0.20;0.20;;;30.10;71.40;;;;;;5067400;28;20057;-82
2022/08/12 12:47:54;;;;;;;0.20;0.20;;;30.20;72.20;;;;;;5056657;28;20093;-81
2022/08/12 12:50:20;;;;;;;0.20;0.20;;;30.30;70.70;;;;;;5065241;28;20051;-81
2022/08/12 12:52:46;;;;;;;0.20;0.20;;;30.40;70.10;;;;;;5076083;28;20041;-81
2022/08/12 12:55:13;;;;;;;0.20;0.20;;;30.50;70.20;;;;;;5069871;28;20055;-81
2022/08/12 12:57:41;;;;;;;0.20;0.20;;;30.60;69.70;;;;;;5073354;28;20051;-81
2022/08/12 13:00:14;;;;;;;0.20;0.20;;;30.70;69.80;;;;;;5071425;28;20048;-81
2022/08/12 13:02:51;;;;;;;0.20;0.20;;;30.80;69.90;;;;;;5072077;28;20195;-81
2022/08/12 13:05:23;;;;;;;0.20;0.20;;;30.90;68.90;;;;;;5069504;28;20083;-81
2022/08/12 13:07:49;;;;;;;0.20;0.20;;;31.00;68.40;;;;;;5066257;28;20621;-81
2022/08/12 13:10:15;;;;;;;0.20;0.20;;;31.10;68.00;;;;;;5086249;28;20040;-80
2022/08/12 13:12:41;;;;;;;0.20;0.20;;;31.10;67.90;;;;;;5072457;28;20075;-80
2022/08/12 13:15:14;;;;;;;0.20;0.20;;;31.20;67.90;;;;;;5067785;28;20568;-79
2022/08/12 13:17:42;;;;;;;0.20;0.20;;;31.20;66.60;;;;;;5062944;28;20041;-80
2022/08/12 13:20:08;;;;;;;0.20;0.20;;;31.20;66.90;;;;;;5069850;28;20101;-80
2022/08/12 13:22:34;;;;;;;0.20;0.20;;;31.30;66.60;;;;;;5064314;28;20048;-79
2022/08/12 13:25:00;;;;;;;0.20;0.20;;;31.20;66.80;;;;;;5080040;28;20040;-82
2022/08/12 13:27:30;;;;;;;0.20;0.20;;;;;;;;;;5072179;28;20051;-79
2022/08/12 13:29:57;;;;;;;0.20;0.20;;;31.30;66.40;;;;;;5069867;28;20415;-79
2022/08/12 13:32:23;;;;;;;0.20;0.20;;;31.40;66.50;;;;;;5077382;28;20041;-80
2022/08/12 13:34:52;;;;;;;0.20;0.20;;;31.50;66.20;;;;;;5058278;28;20048;-80
2022/08/12 13:37:25;;;;;;;0.20;0.20;;;31.50;65.90;;;;;;5065093;28;20084;-80
2022/08/12 13:39:51;;;;;;;0.20;0.20;;;31.60;66.50;;;;;;5052599;28;20045;-80
2022/08/12 13:42:18;;;;;;;0.20;0.20;;;31.60;65.90;;;;;;5062683;28;20056;-81
2022/08/12 13:44:44;;;;;;;0.20;0.20;;;31.60;65.70;;;;;;5054284;28;20064;-80
2022/08/12 13:47:10;;;;;;;0.20;0.20;;;31.70;65.30;;;;;;5058229;28;20041;-81
2022/08/12 13:49:36;;;;;;;0.20;0.20;;;31.80;65.20;;;;;;5061807;28;20129;-81
2022/08/12 13:52:02;;;;;;;0.20;0.20;;;31.80;64.40;;;;;;5061344;28;20110;-80
2022/08/12 13:54:28;;;;;;;0.20;0.20;;;31.80;65.20;;;;;;5070497;28;20045;-81
2022/08/12 13:56:55;;;;;;;0.30;0.30;;;31.80;64.80;;;;;;5068761;28;20075;-79
2022/08/12 13:59:21;;;;;;;0.20;0.20;;;31.90;65.20;;;;;;5064017;28;20044;-80
2022/08/12 14:01:50;;;;;;;0.30;0.30;;;31.90;65.50;;;;;;5070492;28;20045;-80
2022/08/12 14:04:16;;;;;;;0.20;0.20;;;32.00;64.20;;;;;;5071085;28;20057;-81
2022/08/12 14:06:42;;;;;;;0.30;0.30;;;32.00;63.10;;;;;;5071745;28;20068;-81
2022/08/12 14:09:08;;;;;;;0.20;0.20;;;31.90;64.30;;;;;;5071280;28;20090;-81
2022/08/12 14:11:34;;;;;;;0.10;0.10;;;31.90;63.60;;;;;;5086069;28;20052;-80
2022/08/12 14:14:00;;;;;;;0.20;0.20;;;31.90;63.10;;;;;;5068886;28;20473;-81
2022/08/12 14:16:27;;;;;;;0.20;0.20;;;31.90;64.40;;;;;;5052676;28;20044;-80
2022/08/12 14:18:53;;;;;;;0.20;0.20;;;32.00;64.40;;;;;;5064696;28;20134;-80
2022/08/12 14:21:19;;;;;;;0.20;0.20;;;32.00;64.40;;;;;;5066547;28;20516;-80
2022/08/12 14:23:51;;;;;;;0.20;0.20;;;32.10;63.90;;;;;;5051120;28;20527;-80
2022/08/12 14:26:19;;;;;;;0.20;0.20;;;32.20;64.40;;;;;;5050174;28;20637;-80
2022/08/12 14:28:45;;;;;;;0.20;0.20;;;32.30;65.00;;;;;;5050833;28;20515;-81
2022/08/12 14:31:13;;;;;;;0.30;0.30;;;32.40;65.10;;;;;;5069750;28;20045;-80
2022/08/12 14:33:47;;;;;;;0.20;0.20;;;32.50;65.00;;;;;;5049063;28;20079;-80
2022/08/12 14:36:23;;;;;;;0.30;0.30;;;32.60;63.30;;;;;;5060718;28;20044;-81
2022/08/12 14:38:51;;;;;;;0.20;0.20;;;32.60;63.60;;;;;;5063780;28;20131;-82
2022/08/12 14:41:19;;;;;;;0.22;0.22;;;32.60;63.90;;;;;;5066785;28;20054;-83
2022/08/12 14:43:47;;;;;;;0.20;0.20;;;32.60;64.10;;;;;;5079198;28;20127;-80
2022/08/12 14:46:15;;;;;;;0.30;0.30;;;32.70;64.20;;;;;;5057795;28;20052;-82
2022/08/12 14:48:45;;;;;;;0.20;0.20;;;32.60;63.60;;;;;;5054673;28;20100;-80
2022/08/12 14:51:15;;;;;;;0.20;0.20;;;32.70;63.50;;;;;;5061827;28;20040;-81
2022/08/12 14:53:42;;;;;;;;;;;32.70;63.40;;;;;;5068981;28;20559;-81
2022/08/12 14:56:08;;;;;;;0.30;0.30;;;32.80;63.10;;;;;;5074538;28;19931;-81